createdAt,value
2023-05-25T00:01:08.991Z,6.35
2023-05-25T00:03:35.638Z,5.93
2023-05-25T00:06:02.246Z,6.11
2023-05-25T00:08:28.798Z,5.97
2023-05-25T00:10:55.367Z,5.77
2023-05-25T00:13:21.941Z,6.12
2023-05-25T00:15:48.509Z,5.81
2023-05-25T00:18:15.073Z,5.85
2023-05-25T00:20:41.828Z,5.68
2023-05-25T00:23:08.383Z,5.64
2023-05-25T00:25:34.968Z,6.12
2023-05-25T00:28:01.594Z,5.91
2023-05-25T00:30:28.208Z,5.74
2023-05-25T00:32:54.777Z,5.63
2023-05-25T00:35:21.346Z,5.96
2023-05-25T00:37:47.869Z,5.71
2023-05-25T00:40:14.416Z,5.64
2023-05-25T00:42:40.950Z,5.67
2023-05-25T00:45:07.538Z,5.78
2023-05-25T00:47:34.093Z,5.55
2023-05-25T00:50:00.713Z,5.92
2023-05-25T00:52:27.265Z,5.83
2023-05-25T00:54:53.818Z,5.68
2023-05-25T00:57:20.358Z,5.60
2023-05-25T00:59:46.944Z,5.26
2023-05-25T01:02:13.584Z,5.51
2023-05-25T01:04:40.156Z,5.37
2023-05-25T01:07:07.281Z,5.61
2023-05-25T01:09:34.013Z,5.47
2023-05-25T01:12:00.484Z,5.52
2023-05-25T01:14:27.022Z,5.19
2023-05-25T01:16:53.641Z,5.48
2023-05-25T01:19:20.286Z,5.34
2023-05-25T01:21:46.739Z,5.29
2023-05-25T01:24:13.177Z,5.30
2023-05-25T01:26:39.714Z,5.47
2023-05-25T01:29:06.365Z,5.09
2023-05-25T01:31:32.935Z,5.27
2023-05-25T01:33:59.544Z,5.30
2023-05-25T01:36:26.185Z,5.30
2023-05-25T01:38:52.696Z,5.59
2023-05-25T01:41:19.211Z,5.24
2023-05-25T01:43:45.825Z,5.20
2023-05-25T01:46:12.374Z,5.38
2023-05-25T01:48:39.029Z,5.30
2023-05-25T01:51:05.554Z,5.32
2023-05-25T01:53:32.144Z,5.20
2023-05-25T01:55:58.800Z,5.10
2023-05-25T01:58:25.325Z,5.04
2023-05-25T02:00:51.836Z,5.09
2023-05-25T02:03:18.452Z,5.13
2023-05-25T02:05:45.237Z,5.17
2023-05-25T02:08:12.003Z,5.20
2023-05-25T02:10:38.563Z,5.17
2023-05-25T02:13:05.161Z,5.24
2023-05-25T02:15:31.693Z,5.04
2023-05-25T02:17:58.278Z,5.11
2023-05-25T02:20:24.847Z,5.22
2023-05-25T02:22:51.459Z,5.41
2023-05-25T02:25:18.039Z,5.06
2023-05-25T02:27:44.522Z,4.92
2023-05-25T02:30:11.096Z,5.09
2023-05-25T02:32:37.712Z,5.00
2023-05-25T02:35:04.227Z,5.07
2023-05-25T02:37:30.844Z,4.85
2023-05-25T02:39:57.396Z,5.16
2023-05-25T02:42:23.966Z,4.72
2023-05-25T02:44:50.598Z,4.94
2023-05-25T02:47:17.124Z,4.84
2023-05-25T02:49:43.698Z,4.93
2023-05-25T02:52:10.230Z,4.90
2023-05-25T02:54:36.774Z,4.66
2023-05-25T02:57:03.280Z,4.89
2023-05-25T02:59:29.908Z,5.18
2023-05-25T03:01:56.487Z,5.01
2023-05-25T03:04:23.073Z,4.72
2023-05-25T03:06:49.705Z,4.77
2023-05-25T03:09:16.317Z,4.64
2023-05-25T03:11:42.865Z,5.17
2023-05-25T03:14:09.410Z,4.66
2023-05-25T03:16:36.006Z,4.61
2023-05-25T03:19:02.560Z,4.99
2023-05-25T03:21:29.058Z,4.69
2023-05-25T03:23:55.639Z,4.74
2023-05-25T03:26:22.274Z,4.88
2023-05-25T03:28:48.781Z,5.10
2023-05-25T03:31:15.330Z,4.72
2023-05-25T03:33:41.903Z,4.79
2023-05-25T03:36:08.432Z,4.94
2023-05-25T03:38:34.972Z,4.54
2023-05-25T03:41:01.472Z,4.46
2023-05-25T03:43:28.002Z,4.69
2023-05-25T03:45:54.607Z,4.70
2023-05-25T03:48:21.229Z,4.41
2023-05-25T03:50:47.735Z,4.79
2023-05-25T03:53:14.305Z,4.67
2023-05-25T03:55:40.944Z,4.74
2023-05-25T03:58:07.482Z,4.75
2023-05-25T04:00:33.946Z,4.53
2023-05-25T04:03:00.562Z,4.55
2023-05-25T04:05:27.108Z,4.30
2023-05-25T04:07:53.609Z,4.56
2023-05-25T04:10:20.139Z,4.84
2023-05-25T04:12:46.661Z,4.57
2023-05-25T04:15:13.193Z,4.55
2023-05-25T04:17:39.818Z,4.81
2023-05-25T04:20:06.440Z,4.58
2023-05-25T04:22:32.936Z,4.41
2023-05-25T04:24:59.509Z,4.60
2023-05-25T04:27:26.045Z,4.52
2023-05-25T04:29:52.496Z,4.85
2023-05-25T04:32:19.104Z,5.15
2023-05-25T04:34:45.657Z,5.45
2023-05-25T04:37:12.158Z,5.38
2023-05-25T04:39:38.725Z,5.15
2023-05-25T04:42:05.195Z,5.01
2023-05-25T04:44:31.690Z,5.25
2023-05-25T04:46:58.480Z,5.48
2023-05-25T04:49:25.013Z,5.19
2023-05-25T04:51:51.541Z,5.27
2023-05-25T04:54:18.128Z,5.19
2023-05-25T04:56:44.650Z,5.52
2023-05-25T04:59:11.166Z,5.02
2023-05-25T05:01:37.815Z,5.28
2023-05-25T05:04:04.405Z,4.86
2023-05-25T05:06:31.041Z,5.17
2023-05-25T05:08:57.571Z,4.94
2023-05-25T05:11:24.106Z,4.97
2023-05-25T05:13:50.594Z,5.11
2023-05-25T05:16:17.071Z,5.20
2023-05-25T05:18:43.663Z,5.24
2023-05-25T05:21:10.302Z,5.13
2023-05-25T05:23:36.803Z,5.35
2023-05-25T05:26:03.233Z,5.09
2023-05-25T05:28:29.760Z,5.00
2023-05-25T05:30:56.254Z,5.18
2023-05-25T05:33:22.880Z,4.92
2023-05-25T05:35:49.370Z,4.87
2023-05-25T05:38:15.832Z,4.78
2023-05-25T05:40:42.269Z,5.02
2023-05-25T05:43:11.612Z,5.20
2023-05-25T05:45:38.144Z,4.80
2023-05-25T05:48:04.656Z,4.84
2023-05-25T05:50:34.338Z,4.91
2023-05-25T05:53:00.816Z,4.69
2023-05-25T05:55:27.317Z,4.67
2023-05-25T05:57:54.032Z,4.54
2023-05-25T06:00:20.630Z,4.94
2023-05-25T06:02:47.340Z,4.74
2023-05-25T06:05:13.932Z,4.93
2023-05-25T06:07:40.508Z,4.77
2023-05-25T06:10:06.964Z,4.74
2023-05-25T06:12:33.479Z,4.85
2023-05-25T06:15:00.048Z,4.82
2023-05-25T06:17:26.641Z,5.16
2023-05-25T06:19:53.256Z,4.79
2023-05-25T06:22:19.783Z,5.04
2023-05-25T06:24:46.237Z,5.05
2023-05-25T06:27:12.777Z,5.12
2023-05-25T06:29:39.354Z,5.31
2023-05-25T06:32:05.886Z,5.35
2023-05-25T06:34:32.362Z,5.36
2023-05-25T06:36:58.935Z,4.92
2023-05-25T06:39:25.459Z,4.96
2023-05-25T06:41:51.934Z,5.05
2023-05-25T06:44:18.405Z,5.60
2023-05-25T06:46:45.052Z,5.13
2023-05-25T06:49:11.723Z,5.13
2023-05-25T06:51:38.301Z,5.31
2023-05-25T06:54:04.860Z,5.21
2023-05-25T06:56:31.376Z,4.92
2023-05-25T06:58:58.077Z,5.03
2023-05-25T07:01:24.696Z,4.87
2023-05-25T07:03:51.202Z,5.13
2023-05-25T07:06:17.659Z,4.78
2023-05-25T07:08:44.246Z,4.91
2023-05-25T07:11:10.804Z,5.09
2023-05-25T07:13:37.358Z,5.00
2023-05-25T07:16:03.949Z,4.79
2023-05-25T07:18:30.448Z,4.90
2023-05-25T07:20:57.011Z,4.90
2023-05-25T07:23:24.008Z,4.76
2023-05-25T07:25:51.696Z,4.89
2023-05-25T07:28:19.125Z,4.85
2023-05-25T07:30:46.739Z,4.82
2023-05-25T07:33:13.952Z,4.99
2023-05-25T07:35:41.775Z,4.68
2023-05-25T07:38:09.880Z,4.47
2023-05-25T07:40:36.903Z,4.54
2023-05-25T07:43:04.822Z,4.51
2023-05-25T07:45:33.109Z,4.61
2023-05-25T07:47:59.955Z,4.67
2023-05-25T07:50:27.248Z,4.42
2023-05-25T07:52:54.669Z,4.52
2023-05-25T07:55:21.736Z,4.90
2023-05-25T07:57:49.815Z,4.40
2023-05-25T08:00:17.545Z,4.70
2023-05-25T08:02:45.211Z,4.46
2023-05-25T08:05:13.103Z,4.41
2023-05-25T08:07:42.097Z,4.41
2023-05-25T08:10:10.652Z,4.37
2023-05-25T08:12:46.956Z,4.22
2023-05-25T08:15:15.982Z,4.38
2023-05-25T08:17:44.388Z,4.43
2023-05-25T08:20:12.861Z,4.66
2023-05-25T08:22:40.928Z,4.42
2023-05-25T08:25:09.055Z,4.14
2023-05-25T08:27:36.375Z,4.51
2023-05-25T08:30:03.313Z,4.25
2023-05-25T08:32:29.930Z,4.15
2023-05-25T08:34:56.575Z,4.04
2023-05-25T08:37:23.622Z,4.18
2023-05-25T08:39:50.252Z,4.10
2023-05-25T08:42:16.819Z,4.19
2023-05-25T08:44:43.578Z,4.13
2023-05-25T08:47:10.212Z,4.20
2023-05-25T08:49:36.792Z,4.24
2023-05-25T08:52:03.355Z,4.02
2023-05-25T08:54:29.876Z,4.17
2023-05-25T08:56:56.489Z,4.37
2023-05-25T08:59:23.043Z,4.20
2023-05-25T09:01:49.735Z,4.30
2023-05-25T09:04:16.457Z,3.74
2023-05-25T09:06:44.026Z,4.20
2023-05-25T09:09:11.899Z,4.17
2023-05-25T09:11:41.040Z,4.11
2023-05-25T09:14:08.804Z,4.15
2023-05-25T09:16:35.323Z,4.11
2023-05-25T09:19:01.948Z,4.19
2023-05-25T09:21:28.619Z,3.91
2023-05-25T09:23:55.183Z,4.21
2023-05-25T09:26:21.746Z,4.08
2023-05-25T09:28:48.356Z,4.17
2023-05-25T09:31:14.931Z,4.29
2023-05-25T09:33:41.532Z,4.34
2023-05-25T09:36:08.036Z,4.23
2023-05-25T09:38:34.891Z,4.04
2023-05-25T09:41:01.682Z,3.85
2023-05-25T09:43:41.368Z,3.79
2023-05-25T09:46:11.404Z,4.02
2023-05-25T09:48:38.079Z,4.26
2023-05-25T09:51:04.652Z,4.17
2023-05-25T09:53:31.244Z,4.21
2023-05-25T09:55:57.844Z,4.01
2023-05-25T09:58:24.433Z,4.08
2023-05-25T10:00:50.974Z,3.82
2023-05-25T10:03:17.528Z,4.32
2023-05-25T10:05:44.136Z,4.04
2023-05-25T10:08:10.724Z,3.81
2023-05-25T10:10:37.380Z,3.84
2023-05-25T10:13:03.992Z,3.82
2023-05-25T10:15:30.753Z,3.82
2023-05-25T10:17:57.403Z,3.99
2023-05-25T10:20:24.511Z,3.79
2023-05-25T10:22:52.773Z,3.88
2023-05-25T10:25:19.372Z,3.76
2023-05-25T10:27:46.063Z,3.65
2023-05-25T10:30:12.667Z,3.74
2023-05-25T10:32:39.372Z,3.91
2023-05-25T10:35:06.028Z,3.82
2023-05-25T10:37:32.571Z,3.67
2023-05-25T10:39:59.207Z,3.61
2023-05-25T10:42:25.888Z,3.88
2023-05-25T10:44:52.530Z,3.81
2023-05-25T10:47:19.248Z,3.64
2023-05-25T10:49:45.945Z,3.72
2023-05-25T10:52:12.467Z,3.75
2023-05-25T10:54:39.060Z,3.80
2023-05-25T10:57:05.687Z,3.78
2023-05-25T10:59:32.294Z,3.65
2023-05-25T11:01:58.919Z,3.58
2023-05-25T11:04:25.526Z,3.61
2023-05-25T11:06:52.102Z,3.60
2023-05-25T11:09:18.696Z,3.66
2023-05-25T11:11:45.149Z,3.64
2023-05-25T11:14:11.670Z,3.41
2023-05-25T11:16:38.222Z,3.75
2023-05-25T11:19:04.827Z,3.45
2023-05-25T11:21:31.469Z,3.51
2023-05-25T11:23:58.063Z,3.43
2023-05-25T11:26:24.572Z,3.65
2023-05-25T11:28:51.178Z,3.38
2023-05-25T11:31:17.837Z,3.38
2023-05-25T11:33:44.428Z,3.38
2023-05-25T11:36:10.933Z,3.30
2023-05-25T11:38:37.591Z,3.44
2023-05-25T11:41:04.083Z,3.58
2023-05-25T11:43:30.704Z,3.41
2023-05-25T11:45:57.351Z,3.38
2023-05-25T11:48:23.900Z,3.47
2023-05-25T11:50:50.465Z,3.28
2023-05-25T11:53:17.067Z,3.67
2023-05-25T11:55:43.722Z,3.36
2023-05-25T11:58:10.265Z,3.44
2023-05-25T12:00:36.819Z,3.40
2023-05-25T12:03:03.507Z,3.07
2023-05-25T12:05:30.243Z,3.20
2023-05-25T12:07:56.878Z,3.39
2023-05-25T12:10:23.415Z,3.37
2023-05-25T12:12:50.058Z,3.48
2023-05-25T12:15:19.064Z,3.34
2023-05-25T12:17:47.160Z,3.26
2023-05-25T12:20:13.718Z,3.41
2023-05-25T12:22:40.390Z,3.35
2023-05-25T12:25:06.923Z,3.20
2023-05-25T12:27:33.530Z,3.08
2023-05-25T12:30:00.152Z,3.32
2023-05-25T12:32:26.733Z,3.14
2023-05-25T12:34:53.403Z,3.16
2023-05-25T12:37:19.952Z,3.30
2023-05-25T12:39:46.587Z,3.39
2023-05-25T12:42:16.019Z,3.02
2023-05-25T12:44:42.572Z,3.09
2023-05-25T12:47:09.166Z,3.25
2023-05-25T12:49:35.693Z,3.04
2023-05-25T12:52:02.214Z,3.24
2023-05-25T12:54:28.715Z,3.22
2023-05-25T12:56:55.329Z,3.12
2023-05-25T12:59:21.871Z,3.10
2023-05-25T13:01:48.403Z,3.13
2023-05-25T13:04:15.052Z,3.20
2023-05-25T13:06:41.658Z,2.98
2023-05-25T13:09:08.244Z,3.05
2023-05-25T13:11:34.855Z,2.93
2023-05-25T13:14:01.492Z,3.03
2023-05-25T13:16:28.044Z,3.04
2023-05-25T13:18:54.711Z,2.75
2023-05-25T13:21:21.365Z,2.64
2023-05-25T13:23:47.950Z,2.96
2023-05-25T13:26:14.477Z,2.68
2023-05-25T13:28:41.070Z,2.89
2023-05-25T13:31:07.676Z,2.75
2023-05-25T13:33:34.266Z,2.94
2023-05-25T13:36:00.816Z,2.72
2023-05-25T13:38:27.441Z,2.68
2023-05-25T13:40:54.074Z,2.86
2023-05-25T13:43:20.682Z,2.91
2023-05-25T13:45:47.320Z,2.82
2023-05-25T13:48:13.943Z,2.80
2023-05-25T13:50:40.616Z,2.90
2023-05-25T13:53:07.199Z,3.03
2023-05-25T13:55:34.433Z,3.01
2023-05-25T13:58:01.698Z,2.97
2023-05-25T14:00:28.413Z,2.89
2023-05-25T14:02:55.059Z,2.79
2023-05-25T14:05:21.782Z,2.77
2023-05-25T14:07:48.432Z,2.85
2023-05-25T14:10:15.096Z,2.76
2023-05-25T14:12:41.631Z,2.75
2023-05-25T14:15:08.312Z,2.91
2023-05-25T14:17:34.975Z,2.73
2023-05-25T14:20:01.645Z,2.64
2023-05-25T14:22:28.348Z,2.84
2023-05-25T14:24:54.978Z,2.69
2023-05-25T14:27:21.496Z,2.77
2023-05-25T14:29:48.023Z,2.84
2023-05-25T14:32:14.634Z,2.78
2023-05-25T14:34:41.283Z,2.84
2023-05-25T14:37:07.921Z,2.75
2023-05-25T14:39:34.471Z,2.86
2023-05-25T14:42:01.111Z,2.85
2023-05-25T14:44:27.704Z,2.90
2023-05-25T14:46:54.262Z,2.80
2023-05-25T14:49:20.925Z,3.00
2023-05-25T14:51:47.538Z,2.99
2023-05-25T14:54:14.137Z,2.79
2023-05-25T14:56:40.685Z,2.52
2023-05-25T14:59:07.231Z,2.79
2023-05-25T15:01:33.790Z,2.91
2023-05-25T15:04:00.468Z,2.72
2023-05-25T15:06:27.197Z,2.45
2023-05-25T15:08:53.823Z,2.36
2023-05-25T15:11:20.396Z,2.25
2023-05-25T15:13:46.949Z,2.29
2023-05-25T15:16:13.594Z,2.41
2023-05-25T15:18:40.221Z,2.04
2023-05-25T15:21:06.860Z,2.11
2023-05-25T15:23:33.453Z,2.29
2023-05-25T15:26:00.046Z,2.43
2023-05-25T15:28:26.635Z,2.24
2023-05-25T15:30:53.180Z,2.21
2023-05-25T15:33:19.691Z,2.20
2023-05-25T15:35:46.421Z,2.13
2023-05-25T15:38:13.180Z,2.04
2023-05-25T15:40:39.729Z,2.01
2023-05-25T15:43:06.331Z,2.20
2023-05-25T15:45:32.895Z,2.26
2023-05-25T15:47:59.572Z,2.07
2023-05-25T15:50:26.185Z,2.09
2023-05-25T15:52:52.758Z,2.15
2023-05-25T15:55:19.354Z,1.93
2023-05-25T15:57:45.950Z,2.08
2023-05-25T16:00:12.553Z,2.13
2023-05-25T16:02:39.193Z,2.05
2023-05-25T16:05:05.876Z,2.20
2023-05-25T16:07:32.479Z,2.29
2023-05-25T16:09:59.039Z,2.13
2023-05-25T16:12:25.653Z,2.15
2023-05-25T16:14:52.273Z,2.29
2023-05-25T16:17:18.894Z,2.10
2023-05-25T16:19:45.563Z,2.09
2023-05-25T16:22:12.795Z,2.11
2023-05-25T16:24:39.429Z,2.27
2023-05-25T16:27:05.997Z,2.24
2023-05-25T16:29:32.611Z,2.30
2023-05-25T16:31:59.246Z,2.16
2023-05-25T16:34:25.836Z,2.32
2023-05-25T16:36:52.442Z,2.93
2023-05-25T16:39:19.133Z,3.05
2023-05-25T16:41:45.727Z,3.53
2023-05-25T16:44:12.255Z,3.98
2023-05-25T16:46:39.036Z,4.49
2023-05-25T16:49:05.634Z,5.02
2023-05-25T16:51:32.272Z,5.65
2023-05-25T16:53:58.913Z,6.17
2023-05-25T16:56:25.518Z,5.94
2023-05-25T16:58:52.079Z,6.25
2023-05-25T17:01:18.684Z,6.35
2023-05-25T17:03:45.440Z,6.65
2023-05-25T17:06:12.188Z,6.35
2023-05-25T17:08:38.808Z,6.68
2023-05-25T17:11:05.298Z,6.37
2023-05-25T17:13:31.829Z,6.05
2023-05-25T17:15:58.443Z,6.08
2023-05-25T17:18:25.077Z,6.20
2023-05-25T17:20:51.615Z,5.97
2023-05-25T17:23:18.203Z,5.68
2023-05-25T17:25:45.107Z,6.07
2023-05-25T17:28:11.780Z,5.55
2023-05-25T17:30:38.882Z,5.52
2023-05-25T17:33:05.775Z,5.67
2023-05-25T17:35:32.381Z,5.49
2023-05-25T17:37:58.837Z,5.78
2023-05-25T17:40:25.322Z,5.76
2023-05-25T17:42:51.992Z,5.74
2023-05-25T17:45:18.575Z,5.56
2023-05-25T17:47:45.103Z,5.89
2023-05-25T17:50:11.624Z,5.54
2023-05-25T17:52:38.078Z,5.49
2023-05-25T17:55:04.668Z,5.69
2023-05-25T17:57:31.280Z,5.91
2023-05-25T17:59:57.817Z,5.41
2023-05-25T18:02:24.429Z,5.34
2023-05-25T18:04:51.170Z,5.50
2023-05-25T18:07:17.735Z,5.85
2023-05-25T18:09:44.303Z,9.28
2023-05-25T18:12:10.846Z,39.10
2023-05-25T18:14:38.489Z,79.15
2023-05-25T18:17:05.176Z,92.35
2023-05-25T18:19:31.823Z,99.15
2023-05-25T18:21:58.441Z,84.70
2023-05-25T18:24:25.006Z,81.06
2023-05-25T18:26:51.647Z,82.27
2023-05-25T18:29:18.264Z,84.90
2023-05-25T18:31:44.874Z,87.42
2023-05-25T18:34:11.553Z,87.57
2023-05-25T18:36:38.121Z,90.69
2023-05-25T18:39:04.756Z,93.28
2023-05-25T18:41:31.486Z,93.67
2023-05-25T18:43:57.969Z,95.01
2023-05-25T18:46:24.602Z,96.03
2023-05-25T18:48:51.180Z,97.85
2023-05-25T18:51:17.691Z,97.86
2023-05-25T18:53:44.182Z,93.97
2023-05-25T18:56:10.719Z,96.63
2023-05-25T18:58:37.257Z,95.00
2023-05-25T19:01:03.891Z,92.93
2023-05-25T19:03:30.488Z,93.68
2023-05-25T19:05:57.027Z,93.58
2023-05-25T19:08:23.511Z,91.76
2023-05-25T19:10:50.028Z,87.12
2023-05-25T19:13:16.615Z,81.88
2023-05-25T19:15:43.445Z,76.38
2023-05-25T19:18:10.322Z,73.37
2023-05-25T19:20:36.920Z,71.31
2023-05-25T19:23:03.576Z,69.49
2023-05-25T19:25:30.085Z,65.82
2023-05-25T19:27:56.639Z,64.21
2023-05-25T19:30:23.280Z,64.97
2023-05-25T19:32:49.950Z,64.32
2023-05-25T19:35:16.548Z,61.75
2023-05-25T19:37:43.050Z,58.93
2023-05-25T19:40:09.629Z,55.53
2023-05-25T19:42:36.187Z,52.68
2023-05-25T19:45:02.793Z,52.27
2023-05-25T19:47:29.467Z,49.79
2023-05-25T19:49:56.042Z,49.02
2023-05-25T19:52:22.557Z,44.78
2023-05-25T19:54:50.710Z,43.33
2023-05-25T19:57:17.743Z,41.72
2023-05-25T19:59:44.367Z,40.16
2023-05-25T20:02:10.926Z,39.41
2023-05-25T20:04:39.170Z,37.01
2023-05-25T20:07:07.396Z,37.49
2023-05-25T20:09:33.911Z,36.15
2023-05-25T20:12:00.457Z,34.42
2023-05-25T20:14:26.948Z,33.47
2023-05-25T20:16:54.034Z,32.32
2023-05-25T20:19:20.670Z,30.51
2023-05-25T20:21:47.290Z,30.47
2023-05-25T20:24:13.818Z,28.56
2023-05-25T20:26:40.367Z,27.66
2023-05-25T20:29:07.020Z,27.74
2023-05-25T20:31:33.616Z,27.29
2023-05-25T20:34:00.278Z,26.86
2023-05-25T20:36:26.849Z,26.42
2023-05-25T20:38:53.361Z,25.71
2023-05-25T20:41:19.945Z,24.78
2023-05-25T20:43:49.537Z,24.41
2023-05-25T20:46:16.183Z,23.24
2023-05-25T20:48:42.843Z,23.07
2023-05-25T20:51:09.523Z,22.23
2023-05-25T20:53:36.149Z,21.48
2023-05-25T20:56:02.684Z,21.04
2023-05-25T20:58:29.279Z,20.94
2023-05-25T21:00:55.829Z,19.50
2023-05-25T21:03:22.392Z,19.25
2023-05-25T21:05:48.938Z,19.12
2023-05-25T21:08:15.511Z,18.49
2023-05-25T21:10:42.184Z,17.54
2023-05-25T21:13:08.754Z,17.83
2023-05-25T21:15:35.284Z,17.15
2023-05-25T21:18:01.843Z,16.84
2023-05-25T21:20:28.435Z,16.45
2023-05-25T21:22:54.980Z,15.75
2023-05-25T21:25:21.523Z,15.56
2023-05-25T21:27:48.121Z,15.26
2023-05-25T21:30:14.697Z,14.81
2023-05-25T21:32:41.251Z,14.59
2023-05-25T21:35:07.833Z,14.55
2023-05-25T21:37:34.389Z,14.29
2023-05-25T21:40:00.954Z,14.00
2023-05-25T21:42:27.482Z,13.39
2023-05-25T21:44:54.025Z,13.24
2023-05-25T21:47:21.833Z,12.87
2023-05-25T21:49:48.366Z,12.94
2023-05-25T21:52:14.800Z,12.70
2023-05-25T21:54:41.318Z,11.87
2023-05-25T21:57:07.846Z,12.12
2023-05-25T21:59:34.341Z,11.65
2023-05-25T22:02:00.820Z,11.96
2023-05-25T22:04:27.396Z,12.21
2023-05-25T22:06:53.890Z,12.30
2023-05-25T22:09:20.343Z,11.78
2023-05-25T22:11:46.801Z,11.59
2023-05-25T22:14:13.337Z,11.02
2023-05-25T22:16:39.967Z,11.17
2023-05-25T22:19:06.537Z,10.99
2023-05-25T22:21:33.006Z,10.59
2023-05-25T22:23:59.532Z,10.83
2023-05-25T22:26:26.057Z,10.43
2023-05-25T22:28:52.621Z,10.36
2023-05-25T22:31:19.169Z,10.15
2023-05-25T22:33:45.759Z,10.08
2023-05-25T22:36:12.267Z,9.70
2023-05-25T22:38:38.810Z,9.42
2023-05-25T22:41:05.363Z,9.55
2023-05-25T22:43:31.912Z,9.35
2023-05-25T22:45:58.520Z,8.97
2023-05-25T22:48:25.068Z,9.14
2023-05-25T22:50:51.625Z,9.05
2023-05-25T22:53:18.295Z,9.11
2023-05-25T22:55:46.628Z,9.26
2023-05-25T22:58:13.923Z,8.90
2023-05-25T23:00:40.593Z,8.80
2023-05-25T23:03:07.243Z,8.55
2023-05-25T23:05:33.935Z,8.61
2023-05-25T23:08:00.505Z,8.62
2023-05-25T23:10:27.081Z,8.45
2023-05-25T23:12:53.599Z,8.70
2023-05-25T23:15:20.156Z,8.63
2023-05-25T23:17:46.682Z,8.07
2023-05-25T23:20:13.378Z,8.23
2023-05-25T23:22:40.008Z,8.27
2023-05-25T23:25:06.531Z,8.48
2023-05-25T23:27:33.090Z,8.22
2023-05-25T23:29:59.659Z,8.28
2023-05-25T23:32:26.253Z,8.44
2023-05-25T23:34:52.821Z,8.19
2023-05-25T23:37:19.340Z,7.93
2023-05-25T23:39:45.923Z,7.89
2023-05-25T23:42:12.501Z,8.09
2023-05-25T23:44:41.856Z,8.12
2023-05-25T23:47:08.447Z,7.91
2023-05-25T23:49:35.022Z,8.03
2023-05-25T23:52:01.661Z,8.06
2023-05-25T23:54:28.246Z,7.85
2023-05-25T23:56:54.770Z,8.03
2023-05-25T23:59:21.288Z,7.84
